アムステルダム/スキポール の空港の天気 - METARとTAF

スキポール空港(アムステルダム) ( EHAM / AMS ) - オランダ アムステルダム
飛行場実況気象(Metar)
観測時間10/21 17:25 CEST (10/21 15:25 UTC)
風向・風速南西 16m/s 瞬間風速22m/s
視程10km以上
天気現象周辺でしゅう雨
少しの雲 雲底高度 820m
気温19℃
湿度68%
気圧996hPa
METAREHAM 211525Z 22031G43KT 190V250 9999 VCSH FEW027TCU 19/13 Q0996 NOSIG
過去の天気等 Google飛行場航空写真 Wunderground天気予報

過去48時間のMETAR

飛行場予報(TAF)
発表時間: 10/21 13:11 CEST (10/21 11:11 UTC)
予報対象時間: 21日14時 CEST ~ 22日20時 CEST
風向・風速南 8m/s 瞬間風速 13m/s
視程10km以上
全天の4割程度の雲 雲底高度 1220m
21日14時 CEST ~ 21日17時 CEST に徐々に
風向・風速南西 13m/s 瞬間風速 20m/s
21日17時 CEST ~ 21日22時 CEST に 確率 30% で一時的に
風向・風速南西 15m/s 瞬間風速 22m/s
視程7000m
天気現象弱いしゅう雨
全天の4割程度の塔状積雲 雲底高度 610m
全天の8割程度の雲 雲底高度 910m
21日21時 CEST ~ 21日24時 CEST に徐々に
風向・風速南西 8m/s
22日15時 CEST ~ 22日17時 CEST に徐々に
風向・風速南西 5m/s
TAF EHAM 211111Z 2112/2218 17015G25KT 9999 SCT040
BECMG 2112/2115 22026G38KT
PROB30 TEMPO 2115/2120 23029G43KT 7000 -SHRA SCT020TCU BKN030
BECMG 2119/2122 22015KT
BECMG 2213/2215 22010KT